createdAt,value
2018-05-29T00:00:42.786Z,23.80
2018-05-29T00:03:10.209Z,23.74
2018-05-29T00:05:37.640Z,23.70
2018-05-29T00:08:05.056Z,23.64
2018-05-29T00:10:32.484Z,23.62
2018-05-29T00:12:59.895Z,23.60
2018-05-29T00:15:27.325Z,23.58
2018-05-29T00:17:54.741Z,23.53
2018-05-29T00:20:22.169Z,23.50
2018-05-29T00:22:49.589Z,23.46
2018-05-29T00:25:17.010Z,23.41
2018-05-29T00:27:44.445Z,23.38
2018-05-29T00:30:11.868Z,23.31
2018-05-29T00:32:39.280Z,23.25
2018-05-29T00:35:06.696Z,23.20
2018-05-29T00:37:34.120Z,23.18
2018-05-29T00:40:01.538Z,23.15
2018-05-29T00:42:28.957Z,23.09
2018-05-29T00:44:56.386Z,23.04
2018-05-29T00:47:23.796Z,23.02
2018-05-29T00:49:51.237Z,23.00
2018-05-29T00:52:18.641Z,23.02
2018-05-29T00:54:51.802Z,22.99
2018-05-29T00:57:19.216Z,22.96
2018-05-29T00:59:46.641Z,22.91
2018-05-29T01:02:14.072Z,22.86
2018-05-29T01:04:41.484Z,22.82
2018-05-29T01:07:08.913Z,22.79
2018-05-29T01:09:36.340Z,22.78
2018-05-29T01:12:03.761Z,22.75
2018-05-29T01:14:31.181Z,22.70
2018-05-29T01:16:58.604Z,22.67
2018-05-29T01:19:26.016Z,22.65
2018-05-29T01:21:53.440Z,22.63
2018-05-29T01:24:20.858Z,22.60
2018-05-29T01:26:48.281Z,22.58
2018-05-29T01:29:15.692Z,22.58
2018-05-29T01:31:43.157Z,22.67
2018-05-29T01:34:10.565Z,22.78
2018-05-29T01:36:37.993Z,22.87
2018-05-29T01:39:05.421Z,22.95
2018-05-29T01:41:32.848Z,22.98
2018-05-29T01:44:00.260Z,23.02
2018-05-29T01:46:27.685Z,23.11
2018-05-29T01:48:55.096Z,23.25
2018-05-29T01:51:22.526Z,23.36
2018-05-29T01:53:49.945Z,23.47
2018-05-29T01:56:17.372Z,23.54
2018-05-29T01:58:44.785Z,23.53
2018-05-29T02:01:12.208Z,23.47
2018-05-29T02:03:39.616Z,23.48
2018-05-29T02:06:07.044Z,23.48
2018-05-29T02:08:34.453Z,23.50
2018-05-29T02:11:01.877Z,23.49
2018-05-29T02:13:29.296Z,23.44
2018-05-29T02:15:56.728Z,23.47
2018-05-29T02:18:24.144Z,23.50
2018-05-29T02:20:51.567Z,23.56
2018-05-29T02:23:18.981Z,23.57
2018-05-29T02:25:46.415Z,23.51
2018-05-29T02:28:13.823Z,23.52
2018-05-29T02:30:41.247Z,23.51
2018-05-29T02:33:08.674Z,23.54
2018-05-29T02:35:36.084Z,23.52
2018-05-29T02:38:03.518Z,23.52
2018-05-29T02:40:30.928Z,23.50
2018-05-29T02:42:58.347Z,23.54
2018-05-29T02:45:25.761Z,23.56
2018-05-29T02:47:53.188Z,23.54
2018-05-29T02:50:20.612Z,23.52
2018-05-29T02:52:48.028Z,23.48
2018-05-29T02:55:15.450Z,23.41
2018-05-29T02:57:42.909Z,23.32
2018-05-29T03:00:10.364Z,23.24
2018-05-29T03:02:37.740Z,23.18
2018-05-29T03:05:05.161Z,23.07
2018-05-29T03:07:32.587Z,22.97
2018-05-29T03:10:00.000Z,22.89
2018-05-29T03:12:27.431Z,22.81
2018-05-29T03:14:54.852Z,22.77
2018-05-29T03:17:22.273Z,22.74
2018-05-29T03:19:49.690Z,22.72
2018-05-29T03:22:17.111Z,22.76
2018-05-29T03:24:44.533Z,22.80
2018-05-29T03:27:11.952Z,22.81
2018-05-29T03:29:39.364Z,22.82
2018-05-29T03:32:06.789Z,22.86
2018-05-29T03:34:34.215Z,22.85
2018-05-29T03:37:01.644Z,22.87
2018-05-29T03:39:29.062Z,22.90
2018-05-29T03:41:56.480Z,22.99
2018-05-29T03:44:23.896Z,23.03
2018-05-29T03:46:51.352Z,23.06
2018-05-29T03:49:18.776Z,23.12
2018-05-29T03:51:46.200Z,23.21
2018-05-29T03:54:13.609Z,23.27
2018-05-29T03:56:41.028Z,23.30
2018-05-29T03:59:08.448Z,23.39
2018-05-29T04:01:35.891Z,23.45
2018-05-29T04:04:03.308Z,23.51
2018-05-29T04:06:30.728Z,23.50
2018-05-29T04:08:58.157Z,23.49
2018-05-29T04:11:25.572Z,23.48
2018-05-29T04:13:52.998Z,23.50
2018-05-29T04:16:20.407Z,23.55
2018-05-29T04:18:47.829Z,23.60
2018-05-29T04:21:15.260Z,23.62
2018-05-29T04:23:42.685Z,23.62
2018-05-29T04:26:10.106Z,23.69
2018-05-29T04:28:37.525Z,23.74
2018-05-29T04:31:04.947Z,23.74
2018-05-29T04:33:32.374Z,23.77
2018-05-29T04:35:59.794Z,23.83
2018-05-29T04:38:27.217Z,23.86
2018-05-29T04:40:54.641Z,23.87
2018-05-29T04:43:22.069Z,23.91
2018-05-29T04:45:49.492Z,23.95
2018-05-29T04:48:16.926Z,23.98
2018-05-29T04:50:44.349Z,23.99
2018-05-29T04:53:11.788Z,24.06
2018-05-29T04:55:39.204Z,24.09
2018-05-29T04:58:06.624Z,24.06
2018-05-29T05:00:34.054Z,24.07
2018-05-29T05:03:01.477Z,24.03
2018-05-29T05:05:28.900Z,23.97
2018-05-29T05:07:56.315Z,23.98
2018-05-29T05:10:23.724Z,24.07
2018-05-29T05:12:51.148Z,24.13
2018-05-29T05:15:18.568Z,24.15
2018-05-29T05:17:45.991Z,24.14
2018-05-29T05:20:13.418Z,24.25
2018-05-29T05:22:40.841Z,24.32
2018-05-29T05:25:08.256Z,24.34
2018-05-29T05:27:35.676Z,24.25
2018-05-29T05:30:03.135Z,24.18
2018-05-29T05:32:30.522Z,24.08
2018-05-29T05:34:57.936Z,24.01
2018-05-29T05:37:25.458Z,23.97
2018-05-29T05:39:52.916Z,23.97
2018-05-29T05:42:20.371Z,23.96
2018-05-29T05:44:47.837Z,23.96
2018-05-29T05:47:15.252Z,23.98
2018-05-29T05:49:42.735Z,24.00
2018-05-29T05:52:10.206Z,24.05
2018-05-29T05:54:37.633Z,24.11
2018-05-29T05:57:05.050Z,24.11
2018-05-29T05:59:32.477Z,24.18
2018-05-29T06:01:59.917Z,24.26
2018-05-29T06:04:27.368Z,24.40
2018-05-29T06:06:54.780Z,24.52
2018-05-29T06:09:22.277Z,24.65
2018-05-29T06:11:49.697Z,24.74
2018-05-29T06:14:17.121Z,24.87
2018-05-29T06:16:44.541Z,25.00
2018-05-29T06:19:11.968Z,25.08
2018-05-29T06:21:39.381Z,25.19
2018-05-29T06:24:06.821Z,25.29
2018-05-29T06:26:34.266Z,25.40
2018-05-29T06:29:01.713Z,25.53
2018-05-29T06:31:29.128Z,25.61
2018-05-29T06:33:56.637Z,25.74
2018-05-29T06:36:24.052Z,25.87
2018-05-29T06:38:51.523Z,26.00
2018-05-29T06:41:18.936Z,26.16
2018-05-29T06:43:46.466Z,26.30
2018-05-29T06:46:13.880Z,26.42
2018-05-29T06:48:41.300Z,26.51
2018-05-29T06:51:08.716Z,26.65
2018-05-29T06:53:36.139Z,26.76
2018-05-29T06:56:03.564Z,26.83
2018-05-29T06:58:30.984Z,26.90
2018-05-29T07:00:58.444Z,26.94
2018-05-29T07:03:25.877Z,27.02
2018-05-29T07:05:53.303Z,27.16
2018-05-29T07:08:20.813Z,27.25
2018-05-29T07:10:48.266Z,27.39
2018-05-29T07:13:15.685Z,27.57
2018-05-29T07:15:43.100Z,27.77
2018-05-29T07:18:10.559Z,27.88
2018-05-29T07:20:37.987Z,28.00
2018-05-29T07:23:05.409Z,28.15
2018-05-29T07:25:32.828Z,28.32
2018-05-29T07:28:00.241Z,28.44
2018-05-29T07:30:27.671Z,28.58
2018-05-29T07:32:55.088Z,28.71
2018-05-29T07:35:22.513Z,28.83
2018-05-29T07:37:49.932Z,28.97
2018-05-29T07:40:17.351Z,29.13
2018-05-29T07:42:44.765Z,29.37
2018-05-29T07:45:12.188Z,29.59
2018-05-29T07:47:39.606Z,29.73
2018-05-29T07:50:07.034Z,29.84
2018-05-29T07:52:34.465Z,29.95
2018-05-29T07:55:01.911Z,29.97
2018-05-29T07:57:29.328Z,30.12
2018-05-29T07:59:56.765Z,30.25
2018-05-29T08:02:24.180Z,30.39
2018-05-29T08:04:51.604Z,30.43
2018-05-29T08:07:19.028Z,30.54
2018-05-29T08:09:46.471Z,30.71
2018-05-29T08:12:13.881Z,30.88
2018-05-29T08:14:41.313Z,30.96
2018-05-29T08:17:08.736Z,31.06
2018-05-29T08:19:36.183Z,31.18
2018-05-29T08:22:03.621Z,31.35
2018-05-29T08:24:31.146Z,31.46
2018-05-29T08:26:58.494Z,31.59
2018-05-29T08:29:25.924Z,31.68
2018-05-29T08:31:53.349Z,31.83
2018-05-29T08:34:20.835Z,31.82
2018-05-29T08:36:48.257Z,31.94
2018-05-29T08:39:15.693Z,32.14
2018-05-29T08:41:43.115Z,32.33
2018-05-29T08:44:10.557Z,32.47
2018-05-29T08:46:37.989Z,32.60
2018-05-29T08:49:05.431Z,32.68
2018-05-29T08:51:32.872Z,32.82
2018-05-29T08:54:00.309Z,32.95
2018-05-29T08:56:27.740Z,33.00
2018-05-29T08:58:55.181Z,33.20
2018-05-29T09:01:22.616Z,33.39
2018-05-29T09:03:50.061Z,33.41
2018-05-29T09:06:17.501Z,33.66
2018-05-29T09:08:44.928Z,33.86
2018-05-29T09:11:12.371Z,34.03
2018-05-29T09:13:39.796Z,34.13
2018-05-29T09:16:07.236Z,34.28
2018-05-29T09:18:34.662Z,34.47
2018-05-29T09:21:02.092Z,34.64
2018-05-29T09:23:29.519Z,34.78
2018-05-29T09:25:57.002Z,34.85
2018-05-29T09:28:24.388Z,34.69
2018-05-29T09:30:51.812Z,34.99
2018-05-29T09:33:19.237Z,35.14
2018-05-29T09:35:46.679Z,35.16
2018-05-29T09:38:14.097Z,35.03
2018-05-29T09:40:41.530Z,35.09
2018-05-29T09:43:08.952Z,35.24
2018-05-29T09:45:36.380Z,35.38
2018-05-29T09:48:03.796Z,35.63
2018-05-29T09:50:31.233Z,35.80
2018-05-29T09:52:58.660Z,35.84
2018-05-29T09:55:26.097Z,35.88
2018-05-29T09:57:53.515Z,35.67
2018-05-29T10:00:26.343Z,35.72
2018-05-29T10:02:53.756Z,35.73
2018-05-29T10:05:21.188Z,35.89
2018-05-29T10:07:48.611Z,35.99
2018-05-29T10:10:16.053Z,36.13
2018-05-29T10:12:43.468Z,36.24
2018-05-29T10:15:10.897Z,36.31
2018-05-29T10:17:38.316Z,36.25
2018-05-29T10:20:05.751Z,36.31
2018-05-29T10:22:33.178Z,36.25
2018-05-29T10:25:00.612Z,36.21
2018-05-29T10:27:28.037Z,36.39
2018-05-29T10:29:55.460Z,36.62
2018-05-29T10:32:22.904Z,36.91
2018-05-29T10:34:50.332Z,37.16
2018-05-29T10:37:17.767Z,37.25
2018-05-29T10:39:45.199Z,37.22
2018-05-29T10:42:12.628Z,37.10
2018-05-29T10:44:40.069Z,36.98
2018-05-29T10:47:07.504Z,37.09
2018-05-29T10:49:34.923Z,37.21
2018-05-29T10:52:02.363Z,37.21
2018-05-29T10:54:29.786Z,37.28
2018-05-29T10:56:57.216Z,37.32
2018-05-29T10:59:24.636Z,37.49
2018-05-29T11:01:52.068Z,37.35
2018-05-29T11:04:19.492Z,37.59
2018-05-29T11:06:46.931Z,37.94
2018-05-29T11:09:14.348Z,38.00
2018-05-29T11:11:41.785Z,37.98
2018-05-29T11:14:09.228Z,38.01
2018-05-29T11:16:36.656Z,37.92
2018-05-29T11:19:04.082Z,37.83
2018-05-29T11:21:31.518Z,37.76
2018-05-29T11:23:58.938Z,37.76
2018-05-29T11:26:26.392Z,37.97
2018-05-29T11:28:53.821Z,38.20
2018-05-29T11:31:21.256Z,38.26
2018-05-29T11:33:48.684Z,38.08
2018-05-29T11:36:16.121Z,38.01
2018-05-29T11:38:43.532Z,38.07
2018-05-29T11:41:10.984Z,38.14
2018-05-29T11:43:38.389Z,38.19
2018-05-29T11:46:05.847Z,38.36
2018-05-29T11:48:33.269Z,38.35
2018-05-29T11:51:00.692Z,38.24
2018-05-29T11:53:28.117Z,38.22
2018-05-29T11:55:55.561Z,38.18
2018-05-29T11:58:22.973Z,38.37
2018-05-29T12:00:51.236Z,38.59
2018-05-29T12:03:18.656Z,38.60
2018-05-29T12:05:46.077Z,38.67
2018-05-29T12:08:13.508Z,38.74
2018-05-29T12:10:40.927Z,38.64
2018-05-29T12:13:08.355Z,38.67
2018-05-29T12:15:35.776Z,38.89
2018-05-29T12:18:03.209Z,38.97
2018-05-29T12:20:30.649Z,39.06
2018-05-29T12:22:58.076Z,39.08
2018-05-29T12:25:25.511Z,38.97
2018-05-29T12:27:52.969Z,38.94
2018-05-29T12:30:20.385Z,38.90
2018-05-29T12:32:47.812Z,38.87
2018-05-29T12:35:15.231Z,38.80
2018-05-29T12:37:42.671Z,38.82
2018-05-29T12:40:10.098Z,38.76
2018-05-29T12:42:37.539Z,38.83
2018-05-29T12:45:04.980Z,38.88
2018-05-29T12:47:32.409Z,38.94
2018-05-29T12:49:59.849Z,38.89
2018-05-29T12:52:27.280Z,38.91
2018-05-29T12:54:54.756Z,38.72
2018-05-29T12:57:22.184Z,38.56
2018-05-29T12:59:49.613Z,38.60
2018-05-29T13:02:17.837Z,38.61
2018-05-29T13:04:45.333Z,38.57
2018-05-29T13:07:12.770Z,38.56
2018-05-29T13:09:40.227Z,38.68
2018-05-29T13:12:07.653Z,38.58
2018-05-29T13:14:35.093Z,38.35
2018-05-29T13:17:02.527Z,38.37
2018-05-29T13:19:29.989Z,38.45
2018-05-29T13:21:57.433Z,38.28
2018-05-29T13:24:24.860Z,38.40
2018-05-29T13:26:52.321Z,38.60
2018-05-29T13:29:19.754Z,38.85
2018-05-29T13:31:47.180Z,38.92
2018-05-29T13:34:14.608Z,38.98
2018-05-29T13:36:42.082Z,38.94
2018-05-29T13:39:09.516Z,38.81
2018-05-29T13:41:37.937Z,38.88
2018-05-29T13:44:05.838Z,38.94
2018-05-29T13:46:33.252Z,38.79
2018-05-29T13:49:00.692Z,38.48
2018-05-29T13:51:28.111Z,38.27
2018-05-29T13:53:55.544Z,38.39
2018-05-29T13:56:22.970Z,38.63
2018-05-29T13:58:50.395Z,38.78
2018-05-29T14:01:17.828Z,38.89
2018-05-29T14:03:45.244Z,38.58
2018-05-29T14:06:12.692Z,38.26
2018-05-29T14:08:40.132Z,38.22
2018-05-29T14:11:07.557Z,38.15
2018-05-29T14:13:34.991Z,37.93
2018-05-29T14:16:02.420Z,37.94
2018-05-29T14:18:29.854Z,37.86
2018-05-29T14:20:57.272Z,37.96
2018-05-29T14:23:24.717Z,38.03
2018-05-29T14:25:52.137Z,37.97
2018-05-29T14:28:19.568Z,37.92
2018-05-29T14:30:47.001Z,38.01
2018-05-29T14:33:14.431Z,37.99
2018-05-29T14:35:41.857Z,37.80
2018-05-29T14:38:09.289Z,37.76
2018-05-29T14:40:36.711Z,37.70
2018-05-29T14:43:04.147Z,37.66
2018-05-29T14:45:31.592Z,37.57
2018-05-29T14:47:59.964Z,37.51
2018-05-29T14:50:27.384Z,37.59
2018-05-29T14:52:54.819Z,37.51
2018-05-29T14:55:22.246Z,37.40
2018-05-29T14:57:49.684Z,37.33
2018-05-29T15:00:17.104Z,37.21
2018-05-29T15:02:44.543Z,37.23
2018-05-29T15:05:11.966Z,37.24
2018-05-29T15:07:39.400Z,37.23
2018-05-29T15:10:06.821Z,37.08
2018-05-29T15:12:34.260Z,36.97
2018-05-29T15:15:01.677Z,36.92
2018-05-29T15:17:29.101Z,36.99
2018-05-29T15:19:56.532Z,36.88
2018-05-29T15:22:23.961Z,36.80
2018-05-29T15:24:51.407Z,36.81
2018-05-29T15:27:18.821Z,36.84
2018-05-29T15:29:46.252Z,36.82
2018-05-29T15:32:13.676Z,36.84
2018-05-29T15:34:41.112Z,36.70
2018-05-29T15:37:08.541Z,36.50
2018-05-29T15:39:35.973Z,36.32
2018-05-29T15:42:03.396Z,36.10
2018-05-29T15:44:30.832Z,36.14
2018-05-29T15:46:58.252Z,36.14
2018-05-29T15:49:25.689Z,36.14
2018-05-29T15:51:53.116Z,36.04
2018-05-29T15:54:20.548Z,35.79
2018-05-29T15:56:47.988Z,35.70
2018-05-29T15:59:15.421Z,35.67
2018-05-29T16:01:42.864Z,35.58
2018-05-29T16:04:10.292Z,35.52
2018-05-29T16:06:37.716Z,35.37
2018-05-29T16:09:06.072Z,35.22
2018-05-29T16:11:33.513Z,35.08
2018-05-29T16:14:00.981Z,34.97
2018-05-29T16:16:28.376Z,34.82
2018-05-29T16:18:55.793Z,34.70
2018-05-29T16:21:23.220Z,34.57
2018-05-29T16:23:50.699Z,34.49
2018-05-29T16:26:18.120Z,34.43
2018-05-29T16:28:45.556Z,34.41
2018-05-29T16:31:12.981Z,34.30
2018-05-29T16:33:40.413Z,34.19
2018-05-29T16:36:07.842Z,34.11
2018-05-29T16:38:35.272Z,34.00
2018-05-29T16:41:02.696Z,33.89
2018-05-29T16:43:30.146Z,33.84
2018-05-29T16:45:57.577Z,33.88
2018-05-29T16:48:25.011Z,33.93
2018-05-29T16:50:52.435Z,33.85
2018-05-29T16:53:19.887Z,33.78
2018-05-29T16:55:47.316Z,33.73
2018-05-29T16:58:14.741Z,33.69
2018-05-29T17:00:42.174Z,33.59
2018-05-29T17:03:09.580Z,33.49
2018-05-29T17:05:37.017Z,33.31
2018-05-29T17:08:04.462Z,33.25
2018-05-29T17:10:31.867Z,33.29
2018-05-29T17:12:59.294Z,33.36
2018-05-29T17:15:26.797Z,33.31
2018-05-29T17:17:54.160Z,33.24
2018-05-29T17:20:21.592Z,33.17
2018-05-29T17:22:49.028Z,33.04
2018-05-29T17:25:16.457Z,32.98
2018-05-29T17:27:43.884Z,32.94
2018-05-29T17:30:11.320Z,32.94
2018-05-29T17:32:38.732Z,32.90
2018-05-29T17:35:06.164Z,32.82
2018-05-29T17:37:33.591Z,32.82
2018-05-29T17:40:01.014Z,32.81
2018-05-29T17:42:28.451Z,32.80
2018-05-29T17:44:55.926Z,32.79
2018-05-29T17:47:23.360Z,32.79
2018-05-29T17:49:50.817Z,32.87
2018-05-29T17:52:18.236Z,32.81
2018-05-29T17:54:45.673Z,32.73
2018-05-29T17:57:13.096Z,32.59
2018-05-29T17:59:40.524Z,32.46
2018-05-29T18:02:07.952Z,32.43
2018-05-29T18:04:35.376Z,32.35
2018-05-29T18:07:02.805Z,32.24
2018-05-29T18:09:30.242Z,32.22
2018-05-29T18:11:57.661Z,32.14
2018-05-29T18:14:25.088Z,32.04
2018-05-29T18:16:52.509Z,31.97
2018-05-29T18:19:19.940Z,31.77
2018-05-29T18:21:47.360Z,31.70
2018-05-29T18:24:14.788Z,31.60
2018-05-29T18:26:42.229Z,31.51
2018-05-29T18:29:09.631Z,31.40
2018-05-29T18:31:37.064Z,31.38
2018-05-29T18:34:04.493Z,31.42
2018-05-29T18:36:31.929Z,31.32
2018-05-29T18:38:59.345Z,31.27
2018-05-29T18:41:26.764Z,31.21
2018-05-29T18:43:54.180Z,31.20
2018-05-29T18:46:21.617Z,31.19
2018-05-29T18:48:49.046Z,31.13
2018-05-29T18:51:16.471Z,31.10
2018-05-29T18:53:43.900Z,31.04
2018-05-29T18:56:11.316Z,31.03
2018-05-29T18:58:38.735Z,30.99
2018-05-29T19:01:06.165Z,30.87
2018-05-29T19:03:33.627Z,30.74
2018-05-29T19:06:01.018Z,30.62
2018-05-29T19:08:28.436Z,30.57
2018-05-29T19:10:55.861Z,30.54
2018-05-29T19:13:23.290Z,30.48
2018-05-29T19:15:50.717Z,30.46
2018-05-29T19:18:18.136Z,30.45
2018-05-29T19:20:45.564Z,30.41
2018-05-29T19:23:13.030Z,30.38
2018-05-29T19:25:40.411Z,30.33
2018-05-29T19:28:07.824Z,30.31
2018-05-29T19:30:35.255Z,30.30
2018-05-29T19:33:02.689Z,30.28
2018-05-29T19:35:30.113Z,30.24
2018-05-29T19:37:57.534Z,30.20
2018-05-29T19:40:24.969Z,30.11
2018-05-29T19:42:53.313Z,30.03
2018-05-29T19:45:20.737Z,29.96
2018-05-29T19:47:49.461Z,29.98
2018-05-29T19:50:17.682Z,29.97
2018-05-29T19:52:45.089Z,29.91
2018-05-29T19:55:13.460Z,29.71
2018-05-29T19:57:40.976Z,29.59
2018-05-29T20:00:08.630Z,29.38
2018-05-29T20:02:36.026Z,29.35
2018-05-29T20:05:03.453Z,29.27
2018-05-29T20:07:30.868Z,29.10
2018-05-29T20:09:58.288Z,28.99
2018-05-29T20:12:25.709Z,28.93
2018-05-29T20:14:53.127Z,28.87
2018-05-29T20:17:32.380Z,28.73
2018-05-29T20:19:59.852Z,28.56
2018-05-29T20:22:27.224Z,28.45
2018-05-29T20:24:54.628Z,28.39
2018-05-29T20:27:22.055Z,28.35
2018-05-29T20:29:49.479Z,28.30
2018-05-29T20:32:16.913Z,28.32
2018-05-29T20:34:44.332Z,28.39
2018-05-29T20:37:11.760Z,28.22
2018-05-29T20:39:39.181Z,28.22
2018-05-29T20:42:06.612Z,28.18
2018-05-29T20:44:34.032Z,28.27
2018-05-29T20:47:01.456Z,28.39
2018-05-29T20:49:28.875Z,28.45
2018-05-29T20:51:56.342Z,28.45
2018-05-29T20:54:23.803Z,28.47
2018-05-29T20:56:51.184Z,28.47
2018-05-29T20:59:18.601Z,28.45
2018-05-29T21:01:46.035Z,28.29
2018-05-29T21:04:13.440Z,28.16
2018-05-29T21:06:40.882Z,28.05
2018-05-29T21:09:08.293Z,27.90
2018-05-29T21:11:35.718Z,27.74
2018-05-29T21:14:03.140Z,27.65
2018-05-29T21:16:30.564Z,27.57
2018-05-29T21:18:57.988Z,27.49
2018-05-29T21:21:25.442Z,27.41
2018-05-29T21:23:52.855Z,27.38
2018-05-29T21:26:20.280Z,27.37
2018-05-29T21:28:47.692Z,27.31
2018-05-29T21:31:15.119Z,27.28
2018-05-29T21:33:42.532Z,27.27
2018-05-29T21:36:09.961Z,27.22
2018-05-29T21:38:37.388Z,27.11
2018-05-29T21:41:04.821Z,27.00
2018-05-29T21:43:32.247Z,26.84
2018-05-29T21:45:59.680Z,26.75
2018-05-29T21:48:27.097Z,26.72
2018-05-29T21:50:54.522Z,26.67
2018-05-29T21:53:21.944Z,26.67
2018-05-29T21:55:49.365Z,26.68
2018-05-29T21:58:16.795Z,26.58
2018-05-29T22:00:44.220Z,26.51
2018-05-29T22:03:11.654Z,26.47
2018-05-29T22:05:39.068Z,26.42
2018-05-29T22:08:07.417Z,26.40
2018-05-29T22:10:34.824Z,26.31
2018-05-29T22:13:02.251Z,26.26
2018-05-29T22:15:29.668Z,26.25
2018-05-29T22:17:57.097Z,26.30
2018-05-29T22:20:24.515Z,26.31
2018-05-29T22:22:51.941Z,26.32
2018-05-29T22:25:19.353Z,26.30
2018-05-29T22:27:46.781Z,26.32
2018-05-29T22:30:14.201Z,26.31
2018-05-29T22:32:41.629Z,26.22
2018-05-29T22:35:09.049Z,26.20
2018-05-29T22:37:36.472Z,26.18
2018-05-29T22:40:03.893Z,26.18
2018-05-29T22:42:31.321Z,26.10
2018-05-29T22:44:58.737Z,26.05
2018-05-29T22:47:26.159Z,25.97
2018-05-29T22:49:53.580Z,25.91
2018-05-29T22:52:21.008Z,25.84
2018-05-29T22:54:48.425Z,25.82
2018-05-29T22:57:15.862Z,25.84
2018-05-29T22:59:43.272Z,25.81
2018-05-29T23:02:10.709Z,25.74
2018-05-29T23:04:38.126Z,25.69
2018-05-29T23:07:05.550Z,25.67
2018-05-29T23:09:32.965Z,25.66
2018-05-29T23:12:00.391Z,25.69
2018-05-29T23:14:27.804Z,25.60
2018-05-29T23:16:55.228Z,25.50
2018-05-29T23:19:22.644Z,25.44
2018-05-29T23:21:50.071Z,25.42
2018-05-29T23:24:17.491Z,25.41
2018-05-29T23:26:44.900Z,25.34
2018-05-29T23:29:12.333Z,25.28
2018-05-29T23:31:39.749Z,25.26
2018-05-29T23:34:07.172Z,25.24
2018-05-29T23:36:34.594Z,25.25
2018-05-29T23:39:02.029Z,25.25
2018-05-29T23:41:29.441Z,25.22
2018-05-29T23:43:56.875Z,25.21
2018-05-29T23:46:24.288Z,25.15
2018-05-29T23:48:51.716Z,25.08
2018-05-29T23:51:19.128Z,25.10
2018-05-29T23:53:46.555Z,25.07
2018-05-29T23:56:13.981Z,24.96
2018-05-29T23:58:41.408Z,24.92
